createdAt,value
2018-12-29T00:00:59.037Z,25.60
2018-12-29T00:01:59.035Z,25.70
2018-12-29T00:02:59.027Z,23.70
2018-12-29T00:03:59.025Z,26.40
2018-12-29T00:04:59.001Z,24.90
2018-12-29T00:05:59.008Z,23.40
2018-12-29T00:06:58.973Z,24.10
2018-12-29T00:07:58.965Z,24.10
2018-12-29T00:08:58.987Z,25.10
2018-12-29T00:09:58.961Z,25.70
2018-12-29T00:10:58.939Z,25.50
2018-12-29T00:11:58.943Z,24.40
2018-12-29T00:12:58.912Z,23.50
2018-12-29T00:13:58.920Z,26.10
2018-12-29T00:14:58.893Z,23.70
2018-12-29T00:15:58.879Z,24.80
2018-12-29T00:16:58.883Z,25.90
2018-12-29T00:17:58.875Z,26.20
2018-12-29T00:18:58.897Z,26.30
2018-12-29T00:19:58.836Z,24.80
2018-12-29T00:20:58.828Z,24.30
2018-12-29T00:21:58.817Z,24.40
2018-12-29T00:22:58.809Z,26.00
2018-12-29T00:23:58.827Z,25.50
2018-12-29T00:24:58.792Z,25.20
2018-12-29T00:25:58.780Z,25.60
2018-12-29T00:26:58.771Z,24.00
2018-12-29T00:27:58.760Z,24.20
2018-12-29T00:28:58.751Z,24.30
2018-12-29T00:29:58.774Z,23.10
2018-12-29T00:30:58.721Z,23.60
2018-12-29T00:31:58.708Z,23.50
2018-12-29T00:32:58.725Z,23.90
2018-12-29T00:33:58.689Z,24.70
2018-12-29T00:34:58.698Z,24.70
2018-12-29T00:35:58.673Z,24.10
2018-12-29T00:36:58.658Z,25.20
2018-12-29T00:37:58.650Z,24.90
2018-12-29T00:38:58.635Z,24.50
2018-12-29T00:39:58.646Z,24.50
2018-12-29T00:40:58.629Z,25.50
2018-12-29T00:41:58.608Z,25.00
2018-12-29T00:42:58.594Z,25.60
2018-12-29T00:43:58.586Z,24.30
2018-12-29T00:45:02.382Z,25.20
2018-12-29T00:45:58.568Z,24.90
2018-12-29T00:46:58.568Z,24.90
2018-12-29T00:47:58.546Z,25.50
2018-12-29T00:48:58.539Z,24.70
2018-12-29T00:49:58.551Z,26.50
2018-12-29T00:50:58.511Z,25.70
2018-12-29T00:51:58.509Z,24.90
2018-12-29T00:52:58.496Z,25.20
2018-12-29T00:53:58.479Z,23.00
2018-12-29T00:54:58.487Z,25.80
2018-12-29T00:55:58.462Z,24.30
2018-12-29T00:56:58.446Z,25.60
2018-12-29T00:57:58.439Z,25.70
2018-12-29T00:58:58.442Z,25.90
2018-12-29T00:59:58.442Z,26.50
2018-12-29T01:00:58.405Z,25.10
2018-12-29T01:01:58.391Z,26.10
2018-12-29T01:02:58.382Z,25.10
2018-12-29T01:03:58.379Z,25.40
2018-12-29T01:04:58.396Z,25.00
2018-12-29T01:05:58.352Z,26.50
2018-12-29T01:06:58.342Z,24.10
2018-12-29T01:07:58.337Z,25.30
2018-12-29T01:08:58.324Z,24.40
2018-12-29T01:09:58.340Z,24.70
2018-12-29T01:10:58.317Z,25.50
2018-12-29T01:11:58.292Z,25.20
2018-12-29T01:12:58.282Z,23.90
2018-12-29T01:13:58.266Z,24.60
2018-12-29T01:14:58.290Z,25.10
2018-12-29T01:15:58.249Z,25.10
2018-12-29T01:16:58.232Z,25.60
2018-12-29T01:17:58.225Z,25.10
2018-12-29T01:18:58.215Z,26.10
2018-12-29T01:19:58.213Z,25.10
2018-12-29T01:20:58.212Z,24.80
2018-12-29T01:21:58.188Z,25.40
2018-12-29T01:22:58.172Z,22.50
2018-12-29T01:23:58.160Z,24.00
2018-12-29T01:24:58.162Z,25.00
2018-12-29T01:25:58.164Z,25.60
2018-12-29T01:26:58.134Z,25.80
2018-12-29T01:27:58.126Z,25.30
2018-12-29T01:28:58.109Z,24.40
2018-12-29T01:29:58.100Z,25.00
2018-12-29T01:30:58.104Z,26.30
2018-12-29T01:31:58.076Z,25.60
2018-12-29T01:32:58.069Z,25.90
2018-12-29T01:33:58.057Z,24.80
2018-12-29T01:34:58.044Z,25.10
2018-12-29T01:35:58.052Z,24.70
2018-12-29T01:36:58.023Z,25.50
2018-12-29T01:37:58.011Z,26.60
2018-12-29T01:38:58.008Z,25.00
2018-12-29T01:39:58.005Z,26.30
2018-12-29T01:40:58.004Z,26.50
2018-12-29T01:41:57.970Z,28.10
2018-12-29T01:42:57.959Z,27.20
2018-12-29T01:43:57.957Z,27.60
2018-12-29T01:44:57.950Z,28.40
2018-12-29T01:45:57.954Z,28.40
2018-12-29T01:46:57.915Z,28.50
2018-12-29T01:47:57.914Z,27.10
2018-12-29T01:48:57.891Z,26.80
2018-12-29T01:49:57.885Z,29.70
2018-12-29T01:50:57.910Z,32.60
2018-12-29T01:51:57.861Z,30.90
2018-12-29T01:52:57.849Z,28.30
2018-12-29T01:53:57.841Z,35.70
2018-12-29T01:54:57.833Z,29.10
2018-12-29T01:55:57.842Z,27.60
2018-12-29T01:56:57.814Z,27.10
2018-12-29T01:57:57.803Z,24.60
2018-12-29T01:58:57.832Z,23.80
2018-12-29T01:59:57.779Z,25.30
2018-12-29T02:00:57.796Z,27.90
2018-12-29T02:01:57.757Z,28.60
2018-12-29T02:02:57.751Z,28.40
2018-12-29T02:03:57.736Z,28.40
2018-12-29T02:04:57.725Z,27.40
2018-12-29T02:05:57.743Z,26.10
2018-12-29T02:06:57.707Z,28.90
2018-12-29T02:07:57.695Z,24.80
2018-12-29T02:08:57.687Z,20.30
2018-12-29T02:09:57.669Z,27.60
2018-12-29T02:10:57.661Z,30.70
2018-12-29T02:11:57.682Z,26.70
2018-12-29T02:12:57.644Z,29.10
2018-12-29T02:13:57.633Z,24.40
2018-12-29T02:14:57.619Z,27.20
2018-12-29T02:15:57.607Z,28.90
2018-12-29T02:16:57.617Z,28.90
2018-12-29T02:17:57.582Z,29.40
2018-12-29T02:18:57.583Z,28.70
2018-12-29T02:19:57.574Z,28.80
2018-12-29T02:20:57.555Z,27.80
2018-12-29T02:21:57.575Z,27.10
2018-12-29T02:22:57.531Z,27.60
2018-12-29T02:23:57.527Z,29.70
2018-12-29T02:24:57.521Z,28.10
2018-12-29T02:25:57.508Z,27.30
2018-12-29T02:26:57.517Z,27.50
2018-12-29T02:27:57.477Z,25.90
2018-12-29T02:28:57.470Z,28.10
2018-12-29T02:29:57.467Z,28.40
2018-12-29T02:30:57.450Z,28.30
2018-12-29T02:31:57.470Z,26.50
2018-12-29T02:32:57.429Z,22.30
2018-12-29T02:33:57.418Z,26.80
2018-12-29T02:34:57.401Z,26.60
2018-12-29T02:35:57.402Z,24.60
2018-12-29T02:36:57.418Z,25.40
2018-12-29T02:37:57.377Z,26.20
2018-12-29T02:38:57.365Z,27.20
2018-12-29T02:39:57.359Z,26.80
2018-12-29T02:40:57.340Z,29.00
2018-12-29T02:41:57.363Z,28.20
2018-12-29T02:42:57.322Z,22.20
2018-12-29T02:43:57.323Z,26.80
2018-12-29T02:44:57.295Z,27.80
2018-12-29T02:45:57.290Z,26.80
2018-12-29T02:46:57.338Z,25.90
2018-12-29T02:47:57.270Z,27.40
2018-12-29T02:48:57.259Z,28.30
2018-12-29T02:49:57.254Z,28.10
2018-12-29T02:50:57.231Z,28.70
2018-12-29T02:51:57.373Z,27.60
2018-12-29T02:52:57.220Z,24.40
2018-12-29T02:53:57.199Z,27.80
2018-12-29T02:54:57.191Z,26.80
2018-12-29T02:55:57.180Z,27.20
2018-12-29T02:56:57.169Z,26.90
2018-12-29T02:57:57.269Z,28.80
2018-12-29T02:58:57.149Z,26.00
2018-12-29T02:59:57.146Z,26.90
2018-12-29T03:00:57.130Z,27.40
2018-12-29T03:01:57.120Z,28.10
2018-12-29T03:02:57.126Z,28.40
2018-12-29T03:03:57.095Z,26.30
2018-12-29T03:04:57.091Z,28.20
2018-12-29T03:05:57.080Z,28.30
2018-12-29T03:06:57.069Z,27.90
2018-12-29T03:07:57.109Z,25.20
2018-12-29T03:08:57.045Z,26.30
2018-12-29T03:09:57.033Z,24.70
2018-12-29T03:10:57.038Z,27.50
2018-12-29T03:11:57.016Z,27.10
2018-12-29T03:12:57.023Z,27.10
2018-12-29T03:13:56.990Z,29.40
2018-12-29T03:14:56.979Z,28.00
2018-12-29T03:15:56.973Z,28.10
2018-12-29T03:16:56.969Z,26.70
2018-12-29T03:17:56.960Z,27.40
2018-12-29T03:18:56.950Z,28.40
2018-12-29T03:19:56.929Z,28.60
2018-12-29T03:20:56.918Z,27.70
2018-12-29T03:21:56.915Z,27.90
2018-12-29T03:22:56.910Z,28.70
2018-12-29T03:23:56.887Z,29.00
2018-12-29T03:24:56.877Z,29.00
2018-12-29T03:25:56.871Z,28.70
2018-12-29T03:26:56.846Z,29.20
2018-12-29T03:27:56.879Z,32.90
2018-12-29T03:28:56.830Z,28.80
2018-12-29T03:29:56.821Z,29.30
2018-12-29T03:30:56.808Z,28.30
2018-12-29T03:31:56.799Z,19.40
2018-12-29T03:32:56.862Z,28.30
2018-12-29T03:33:56.787Z,29.40
2018-12-29T03:34:56.767Z,28.50
2018-12-29T03:35:56.753Z,26.20
2018-12-29T03:36:56.744Z,28.70
2018-12-29T03:37:56.735Z,28.10
2018-12-29T03:38:56.755Z,29.00
2018-12-29T03:39:56.726Z,28.10
2018-12-29T03:40:56.699Z,28.30
2018-12-29T03:41:56.697Z,26.90
2018-12-29T03:42:56.679Z,28.40
2018-12-29T03:43:56.687Z,27.80
2018-12-29T03:44:56.657Z,27.00
2018-12-29T03:45:56.657Z,29.20
2018-12-29T03:46:56.639Z,28.30
2018-12-29T03:47:56.630Z,28.10
2018-12-29T03:48:56.646Z,26.70
2018-12-29T03:49:56.607Z,27.60
2018-12-29T03:50:56.593Z,27.90
2018-12-29T03:51:56.579Z,28.70
2018-12-29T03:52:56.574Z,28.10
2018-12-29T03:53:56.580Z,28.10
2018-12-29T03:54:56.553Z,28.60
2018-12-29T03:55:56.539Z,28.60
2018-12-29T03:56:56.536Z,28.30
2018-12-29T03:57:56.517Z,26.70
2018-12-29T03:58:56.558Z,26.70
2018-12-29T03:59:56.497Z,28.50
2018-12-29T04:00:56.485Z,28.10
2018-12-29T04:01:56.486Z,28.80
2018-12-29T04:02:56.474Z,28.40
2018-12-29T04:03:57.075Z,27.00
2018-12-29T04:04:56.453Z,26.60
2018-12-29T04:05:56.433Z,28.90
2018-12-29T04:06:56.425Z,28.10
2018-12-29T04:07:56.416Z,27.90
2018-12-29T04:08:56.435Z,24.60
2018-12-29T04:09:56.388Z,27.20
2018-12-29T04:10:56.389Z,28.40
2018-12-29T04:11:56.379Z,29.10
2018-12-29T04:12:56.363Z,28.80
2018-12-29T04:13:56.365Z,30.20
2018-12-29T04:14:56.344Z,29.10
2018-12-29T04:15:58.211Z,29.10
2018-12-29T04:16:56.322Z,29.50
2018-12-29T04:17:56.313Z,28.10
2018-12-29T04:18:56.324Z,30.60
2018-12-29T04:19:56.289Z,27.80
2018-12-29T04:20:56.289Z,29.30
2018-12-29T04:21:56.271Z,29.80
2018-12-29T04:22:56.258Z,30.30
2018-12-29T04:23:56.272Z,29.80
2018-12-29T04:24:56.236Z,29.70
2018-12-29T04:25:56.221Z,29.70
2018-12-29T04:26:56.209Z,29.80
2018-12-29T04:27:56.201Z,29.60
2018-12-29T04:28:56.198Z,30.20
2018-12-29T04:29:56.194Z,30.60
2018-12-29T04:30:56.173Z,31.20
2018-12-29T04:31:56.167Z,30.80
2018-12-29T04:32:56.148Z,32.10
2018-12-29T04:33:56.132Z,30.20
2018-12-29T04:34:56.148Z,28.70
2018-12-29T04:35:56.113Z,29.10
2018-12-29T04:36:56.120Z,30.50
2018-12-29T04:37:56.090Z,30.30
2018-12-29T04:38:56.082Z,30.10
2018-12-29T04:39:56.093Z,29.60
2018-12-29T04:40:56.080Z,27.90
2018-12-29T04:41:56.078Z,29.80
2018-12-29T04:42:56.042Z,29.40
2018-12-29T04:43:56.030Z,29.20
2018-12-29T04:44:56.040Z,30.70
2018-12-29T04:45:56.018Z,31.50
2018-12-29T04:46:56.001Z,29.80
2018-12-29T04:47:55.989Z,30.40
2018-12-29T04:48:55.983Z,31.00
2018-12-29T04:49:55.997Z,27.40
2018-12-29T04:50:55.952Z,32.90
2018-12-29T04:51:55.951Z,31.40
2018-12-29T04:52:55.941Z,29.90
2018-12-29T04:53:55.932Z,33.30
2018-12-29T04:54:55.937Z,32.00
2018-12-29T04:55:55.907Z,30.10
2018-12-29T04:56:55.889Z,30.50
2018-12-29T04:57:55.886Z,29.90
2018-12-29T04:58:55.872Z,31.10
2018-12-29T04:59:55.936Z,30.20
2018-12-29T05:00:55.846Z,28.60
2018-12-29T05:01:55.836Z,30.70
2018-12-29T05:02:55.831Z,29.00
2018-12-29T05:03:55.841Z,28.10
2018-12-29T05:04:55.836Z,26.90
2018-12-29T05:05:55.792Z,28.20
2018-12-29T05:06:55.786Z,27.90
2018-12-29T05:07:55.770Z,23.60
2018-12-29T05:08:55.768Z,27.10
2018-12-29T05:09:55.808Z,27.50
2018-12-29T05:10:55.740Z,26.30
2018-12-29T05:11:55.734Z,23.60
2018-12-29T05:12:55.721Z,28.50
2018-12-29T05:13:55.705Z,29.80
2018-12-29T05:14:55.708Z,29.50
2018-12-29T05:15:55.714Z,27.20
2018-12-29T05:16:55.686Z,26.90
2018-12-29T05:17:55.666Z,27.60
2018-12-29T05:18:55.655Z,24.70
2018-12-29T05:19:55.644Z,29.30
2018-12-29T05:20:55.656Z,27.60
2018-12-29T05:21:55.621Z,28.90
2018-12-29T05:22:55.620Z,26.00
2018-12-29T05:23:55.602Z,29.60
2018-12-29T05:24:55.595Z,27.60
2018-12-29T05:25:55.612Z,29.30
2018-12-29T05:26:55.576Z,30.20
2018-12-29T05:27:55.566Z,29.20
2018-12-29T05:28:55.552Z,26.50
2018-12-29T05:29:55.540Z,29.00
2018-12-29T05:30:55.550Z,28.60
2018-12-29T05:31:55.518Z,28.00
2018-12-29T05:32:55.516Z,27.20
2018-12-29T05:33:55.494Z,28.70
2018-12-29T05:34:55.488Z,27.50
2018-12-29T05:35:55.498Z,25.90
2018-12-29T05:36:55.463Z,26.80
2018-12-29T05:37:55.456Z,25.90
2018-12-29T05:38:55.454Z,29.30
2018-12-29T05:39:55.439Z,26.00
2018-12-29T05:40:55.446Z,27.10
2018-12-29T05:41:55.410Z,29.40
2018-12-29T05:42:55.400Z,29.60
2018-12-29T05:43:55.392Z,25.80
2018-12-29T05:44:55.388Z,27.30
2018-12-29T05:45:55.394Z,27.50
2018-12-29T05:46:55.355Z,28.30
2018-12-29T05:47:55.356Z,26.90
2018-12-29T05:48:55.336Z,28.50
2018-12-29T05:49:55.332Z,29.30
2018-12-29T05:50:55.345Z,27.70
2018-12-29T05:51:55.310Z,26.10
2018-12-29T05:52:55.297Z,26.30
2018-12-29T05:53:55.280Z,28.30
2018-12-29T05:54:55.282Z,28.30
2018-12-29T05:55:55.301Z,28.30
2018-12-29T05:56:55.256Z,28.20
2018-12-29T05:57:55.246Z,27.70
2018-12-29T05:58:55.235Z,29.30
2018-12-29T05:59:55.221Z,29.10
2018-12-29T06:00:55.209Z,28.50
2018-12-29T06:01:55.214Z,25.60
2018-12-29T06:02:55.187Z,26.90
2018-12-29T06:03:55.183Z,27.50
2018-12-29T06:04:55.173Z,24.10
2018-12-29T06:05:55.162Z,27.00
2018-12-29T06:06:55.172Z,25.90
2018-12-29T06:07:55.134Z,28.00
2018-12-29T06:08:55.129Z,28.30
2018-12-29T06:09:55.111Z,28.80
2018-12-29T06:10:55.102Z,28.80
2018-12-29T06:11:55.106Z,27.80
2018-12-29T06:12:55.080Z,21.00
2018-12-29T06:13:55.082Z,28.90
2018-12-29T06:14:55.061Z,28.90
2018-12-29T06:15:55.050Z,27.30
2018-12-29T06:16:55.064Z,27.30
2018-12-29T06:17:55.030Z,27.60
2018-12-29T06:18:55.023Z,27.10
2018-12-29T06:19:55.006Z,27.00
2018-12-29T06:20:54.999Z,28.90
2018-12-29T06:21:55.006Z,28.10
2018-12-29T06:22:54.974Z,29.40
2018-12-29T06:23:54.970Z,26.70
2018-12-29T06:24:54.968Z,28.60
2018-12-29T06:25:54.947Z,28.60
2018-12-29T06:26:54.948Z,22.50
2018-12-29T06:27:54.922Z,23.20
2018-12-29T06:28:54.915Z,26.40
2018-12-29T06:29:54.902Z,23.80
2018-12-29T06:30:54.899Z,18.00
2018-12-29T06:31:54.895Z,24.90
2018-12-29T06:32:54.876Z,23.80
2018-12-29T06:33:54.856Z,24.40
2018-12-29T06:34:54.852Z,25.10
2018-12-29T06:35:54.834Z,22.60
2018-12-29T06:36:54.855Z,26.50
2018-12-29T06:37:54.832Z,24.60
2018-12-29T06:38:54.808Z,25.90
2018-12-29T06:39:54.792Z,25.90
2018-12-29T06:40:54.791Z,28.80
2018-12-29T06:41:54.798Z,28.60
2018-12-29T06:42:54.771Z,28.70
2018-12-29T06:43:54.754Z,25.60
2018-12-29T06:44:54.738Z,26.50
2018-12-29T06:45:54.728Z,28.40
2018-12-29T06:46:54.732Z,26.00
2018-12-29T06:47:54.731Z,28.10
2018-12-29T06:48:54.703Z,23.30
2018-12-29T06:49:54.691Z,30.10
2018-12-29T06:50:54.676Z,29.90
2018-12-29T06:51:54.667Z,27.30
2018-12-29T06:52:54.672Z,28.80
2018-12-29T06:53:54.650Z,29.20
2018-12-29T06:54:54.643Z,25.50
2018-12-29T06:55:54.630Z,19.60
2018-12-29T06:56:54.613Z,25.70
2018-12-29T06:57:54.697Z,30.00
2018-12-29T06:58:54.596Z,28.30
2018-12-29T06:59:54.591Z,25.80
2018-12-29T07:00:54.587Z,29.00
2018-12-29T07:01:54.582Z,27.90
2018-12-29T07:02:54.579Z,29.60
2018-12-29T07:03:54.540Z,28.90
2018-12-29T07:04:54.533Z,29.80
2018-12-29T07:05:54.518Z,28.80
2018-12-29T07:06:54.515Z,29.80
2018-12-29T07:07:54.513Z,27.20
2018-12-29T07:08:54.487Z,29.20
2018-12-29T07:09:54.479Z,28.70
2018-12-29T07:10:54.469Z,30.10
2018-12-29T07:11:54.468Z,28.80
2018-12-29T07:12:54.461Z,28.90
2018-12-29T07:13:54.439Z,30.00
2018-12-29T07:14:54.421Z,29.30
2018-12-29T07:15:54.419Z,29.50
2018-12-29T07:16:55.905Z,30.00
2018-12-29T07:17:54.416Z,27.70
2018-12-29T07:18:54.399Z,29.10
2018-12-29T07:19:54.371Z,28.20
2018-12-29T07:20:54.357Z,27.60
2018-12-29T07:21:54.358Z,29.70
2018-12-29T07:22:54.372Z,29.30
2018-12-29T07:23:54.335Z,30.20
2018-12-29T07:24:54.323Z,29.30
2018-12-29T07:25:54.309Z,30.70
2018-12-29T07:26:54.297Z,30.40
2018-12-29T07:27:54.323Z,30.60
2018-12-29T07:28:54.286Z,30.20
2018-12-29T07:29:54.271Z,30.40
2018-12-29T07:30:54.257Z,30.50
2018-12-29T07:31:54.251Z,29.80
2018-12-29T07:32:54.235Z,34.70
2018-12-29T07:33:54.244Z,32.50
2018-12-29T07:34:54.217Z,30.10
2018-12-29T07:35:54.219Z,29.70
2018-12-29T07:36:54.191Z,29.40
2018-12-29T07:37:54.175Z,30.50
2018-12-29T07:38:54.197Z,29.50
2018-12-29T07:39:54.165Z,29.60
2018-12-29T07:40:54.151Z,29.60
2018-12-29T07:41:54.163Z,30.20
2018-12-29T07:42:54.129Z,28.80
2018-12-29T07:43:54.637Z,28.80
2018-12-29T07:44:54.104Z,31.50
2018-12-29T07:45:54.099Z,28.00
2018-12-29T07:46:54.093Z,30.30
2018-12-29T07:47:54.095Z,30.30
2018-12-29T07:48:54.215Z,30.80
2018-12-29T07:49:54.049Z,29.60
2018-12-29T07:50:54.050Z,31.80
2018-12-29T07:51:54.037Z,29.60
2018-12-29T07:52:54.035Z,29.90
2018-12-29T07:53:54.037Z,30.40
2018-12-29T07:54:53.995Z,28.80
2018-12-29T07:55:53.988Z,28.10
2018-12-29T07:56:53.979Z,28.40
2018-12-29T07:57:53.965Z,29.10
2018-12-29T07:58:53.995Z,28.20
2018-12-29T07:59:53.941Z,28.10
2018-12-29T08:00:53.930Z,27.90
2018-12-29T08:01:53.922Z,28.30
2018-12-29T08:02:53.929Z,28.90
2018-12-29T08:03:53.933Z,27.70
2018-12-29T08:04:53.909Z,28.30
2018-12-29T08:05:53.883Z,28.80
2018-12-29T08:06:53.869Z,28.20
2018-12-29T08:07:53.862Z,28.20
2018-12-29T08:08:53.884Z,27.90
2018-12-29T08:09:53.850Z,26.80
2018-12-29T08:10:53.846Z,27.30
2018-12-29T08:11:53.818Z,27.60
2018-12-29T08:12:53.818Z,28.00
2018-12-29T08:13:53.802Z,27.50
2018-12-29T08:14:53.810Z,26.70
2018-12-29T08:15:53.786Z,27.30
2018-12-29T08:16:56.981Z,26.30
2018-12-29T08:17:53.754Z,26.70
2018-12-29T08:18:53.748Z,26.90
2018-12-29T08:19:53.777Z,26.80
2018-12-29T08:20:53.718Z,27.40
2018-12-29T08:21:53.717Z,26.60
2018-12-29T08:22:53.729Z,26.70
2018-12-29T08:23:53.686Z,27.70
2018-12-29T08:24:53.694Z,27.20
2018-12-29T08:25:53.686Z,27.60
2018-12-29T08:26:53.661Z,26.20
2018-12-29T08:27:53.658Z,26.50
2018-12-29T08:28:53.642Z,26.70
2018-12-29T08:29:53.640Z,26.20
2018-12-29T08:30:53.634Z,26.60
2018-12-29T08:31:53.616Z,26.30
2018-12-29T08:32:53.598Z,27.70
2018-12-29T08:33:53.594Z,27.80
2018-12-29T08:34:53.596Z,27.80
2018-12-29T08:35:53.567Z,27.80
2018-12-29T08:36:53.567Z,28.70
2018-12-29T08:37:53.562Z,28.10
2018-12-29T08:38:53.583Z,27.50
2018-12-29T08:39:53.542Z,27.10
2018-12-29T08:40:53.516Z,26.20
2018-12-29T08:41:53.495Z,27.90
2018-12-29T08:42:53.484Z,28.60
2018-12-29T08:43:53.477Z,28.70
2018-12-29T08:44:53.482Z,28.30
2018-12-29T08:45:53.470Z,28.30
2018-12-29T08:46:53.445Z,29.60
2018-12-29T08:47:53.436Z,27.50
2018-12-29T08:48:53.424Z,27.20
2018-12-29T08:49:53.446Z,27.90
2018-12-29T08:50:53.415Z,28.30
2018-12-29T08:51:53.384Z,28.70
2018-12-29T08:52:53.390Z,27.80
2018-12-29T08:53:53.371Z,27.90
2018-12-29T08:54:53.376Z,27.30
2018-12-29T08:55:53.347Z,28.00
2018-12-29T08:56:53.359Z,28.70
2018-12-29T08:57:53.331Z,28.70
2018-12-29T08:58:53.322Z,28.70
2018-12-29T08:59:53.336Z,32.70
2018-12-29T09:00:53.307Z,30.50
2018-12-29T09:01:53.285Z,36.50
2018-12-29T09:02:53.293Z,31.00
2018-12-29T09:03:53.263Z,25.10
2018-12-29T09:04:53.296Z,28.50
2018-12-29T09:05:53.244Z,29.10
2018-12-29T09:06:53.289Z,26.50
2018-12-29T09:07:53.234Z,26.30
2018-12-29T09:08:53.219Z,27.50
2018-12-29T09:09:53.202Z,26.70
2018-12-29T09:10:53.209Z,26.70
2018-12-29T09:11:53.179Z,27.40
2018-12-29T09:12:53.183Z,28.60
2018-12-29T09:13:53.161Z,27.00
2018-12-29T09:14:53.174Z,25.70
2018-12-29T09:15:53.171Z,26.20
2018-12-29T09:16:53.129Z,24.90
2018-12-29T09:17:53.118Z,25.10
2018-12-29T09:18:53.102Z,26.10
2018-12-29T09:19:53.102Z,25.10
2018-12-29T09:20:53.111Z,23.70
2018-12-29T09:21:53.080Z,24.30
2018-12-29T09:22:53.059Z,23.90
2018-12-29T09:23:53.059Z,22.70
2018-12-29T09:24:53.043Z,23.10
2018-12-29T09:25:53.046Z,23.70
2018-12-29T09:26:53.015Z,23.10
2018-12-29T09:27:53.015Z,23.30
2018-12-29T09:28:53.002Z,23.50
2018-12-29T09:29:52.984Z,23.50
2018-12-29T09:30:53.019Z,22.60
2018-12-29T09:31:52.976Z,22.80
2018-12-29T09:32:52.995Z,22.10
2018-12-29T09:33:52.954Z,21.90
2018-12-29T09:34:52.941Z,21.60
2018-12-29T09:35:52.927Z,22.60
2018-12-29T09:36:52.932Z,22.80
2018-12-29T09:37:52.916Z,22.50
2018-12-29T09:38:52.895Z,22.40
2018-12-29T09:39:52.878Z,22.90
2018-12-29T09:40:52.885Z,22.20
2018-12-29T09:41:52.880Z,22.30
2018-12-29T09:42:52.850Z,22.10
2018-12-29T09:43:52.840Z,20.30
2018-12-29T09:44:52.831Z,23.30
2018-12-29T09:45:52.816Z,23.20
2018-12-29T09:46:52.849Z,23.10
2018-12-29T09:47:52.811Z,22.50
2018-12-29T09:48:52.795Z,23.60
2018-12-29T09:49:52.779Z,20.50
2018-12-29T09:50:52.763Z,24.70
2018-12-29T09:51:52.769Z,23.10
2018-12-29T09:52:52.740Z,24.30
2018-12-29T09:53:52.731Z,23.80
2018-12-29T09:54:52.728Z,22.50
2018-12-29T09:55:52.717Z,22.70
2018-12-29T09:56:52.744Z,19.90
2018-12-29T09:57:52.692Z,22.60
2018-12-29T09:58:52.683Z,22.70
2018-12-29T09:59:52.670Z,22.10
2018-12-29T10:00:52.673Z,23.80
2018-12-29T10:01:52.663Z,22.10
2018-12-29T10:02:52.639Z,24.70
2018-12-29T10:03:52.622Z,25.60
2018-12-29T10:04:52.615Z,24.20
2018-12-29T10:05:52.606Z,23.80
2018-12-29T10:06:52.621Z,23.80
2018-12-29T10:07:52.578Z,23.80
2018-12-29T10:08:52.577Z,25.00
2018-12-29T10:09:52.576Z,25.50
2018-12-29T10:10:52.551Z,23.70
2018-12-29T10:11:52.574Z,24.80
2018-12-29T10:12:52.529Z,25.40
2018-12-29T10:13:52.515Z,24.20
2018-12-29T10:14:52.508Z,23.90
2018-12-29T10:15:52.505Z,24.30
2018-12-29T10:16:52.503Z,24.00
2018-12-29T10:17:52.481Z,24.40
2018-12-29T10:18:52.473Z,24.70
2018-12-29T10:19:52.461Z,24.70
2018-12-29T10:20:52.467Z,24.50
2018-12-29T10:21:52.455Z,24.70
2018-12-29T10:22:52.428Z,25.00
2018-12-29T10:23:52.423Z,25.10
2018-12-29T10:24:52.414Z,22.90
2018-12-29T10:25:52.424Z,24.20
2018-12-29T10:26:52.397Z,23.30
2018-12-29T10:27:52.376Z,24.20
2018-12-29T10:28:52.373Z,25.40
2018-12-29T10:29:52.352Z,23.90
2018-12-29T10:30:52.347Z,23.80
2018-12-29T10:31:52.341Z,23.90
2018-12-29T10:32:52.323Z,23.30
2018-12-29T10:33:52.305Z,24.60
2018-12-29T10:34:52.303Z,24.00
2018-12-29T10:35:52.290Z,22.80
2018-12-29T10:36:52.290Z,24.00
2018-12-29T10:37:52.258Z,23.70
2018-12-29T10:38:52.260Z,21.40
2018-12-29T10:39:52.241Z,24.80
2018-12-29T10:40:52.237Z,25.20
2018-12-29T10:41:52.243Z,25.10
2018-12-29T10:42:52.205Z,25.00
2018-12-29T10:43:52.197Z,25.50
2018-12-29T10:44:52.189Z,24.30
2018-12-29T10:45:52.183Z,26.10
2018-12-29T10:46:52.186Z,21.70
2018-12-29T10:47:52.157Z,26.50
2018-12-29T10:48:52.143Z,25.30
2018-12-29T10:49:52.138Z,24.70
2018-12-29T10:50:52.129Z,24.40
2018-12-29T10:51:52.187Z,24.60
2018-12-29T10:52:52.104Z,25.90
2018-12-29T10:53:52.103Z,22.20
2018-12-29T10:54:52.082Z,22.00
2018-12-29T10:55:52.072Z,25.90
2018-12-29T10:56:52.098Z,24.40
2018-12-29T10:57:52.049Z,24.20
2018-12-29T10:58:52.035Z,24.40
2018-12-29T10:59:52.037Z,24.70
2018-12-29T11:00:52.017Z,24.60
2018-12-29T11:01:52.033Z,24.30
2018-12-29T11:02:52.016Z,20.60
2018-12-29T11:03:51.987Z,21.30
2018-12-29T11:04:52.000Z,23.80
2018-12-29T11:05:51.989Z,23.80
2018-12-29T11:06:51.955Z,20.10
2018-12-29T11:07:51.989Z,23.10
2018-12-29T11:08:51.927Z,23.20
2018-12-29T11:09:51.929Z,22.80
2018-12-29T11:11:52.993Z,17.80
2018-12-29T11:12:51.927Z,20.00
2018-12-29T11:13:51.877Z,21.50
2018-12-29T11:15:12.865Z,20.60
2018-12-29T11:15:51.855Z,23.40
2018-12-29T11:16:51.849Z,22.30
2018-12-29T11:17:51.855Z,23.20
2018-12-29T11:18:51.828Z,23.80
2018-12-29T11:19:51.810Z,16.90
2018-12-29T11:20:51.813Z,22.70
2018-12-29T11:21:51.793Z,24.00
2018-12-29T11:22:51.800Z,23.70
2018-12-29T11:23:52.645Z,23.80
2018-12-29T11:24:51.767Z,25.50
2018-12-29T11:25:51.755Z,24.60
2018-12-29T11:26:51.753Z,24.80
2018-12-29T11:27:51.749Z,22.80
2018-12-29T11:28:51.720Z,24.50
2018-12-29T11:29:51.708Z,24.40
2018-12-29T11:30:51.695Z,25.30
2018-12-29T11:31:51.693Z,23.60
2018-12-29T11:32:51.751Z,23.40
2018-12-29T11:33:51.667Z,25.50
2018-12-29T11:34:51.702Z,24.60
2018-12-29T11:35:51.635Z,25.00
2018-12-29T11:36:51.661Z,24.00
2018-12-29T11:37:51.659Z,24.60
2018-12-29T11:38:51.719Z,25.20
2018-12-29T11:39:51.623Z,25.70
2018-12-29T11:40:51.605Z,26.60
2018-12-29T11:41:51.585Z,25.40
2018-12-29T11:42:51.641Z,25.70
2018-12-29T11:43:51.568Z,26.10
2018-12-29T11:44:51.612Z,25.00
2018-12-29T11:45:51.526Z,26.60
2018-12-29T11:46:51.565Z,24.60
2018-12-29T11:47:51.604Z,23.20
2018-12-29T11:48:51.517Z,23.30
2018-12-29T11:49:51.532Z,24.90
2018-12-29T11:50:51.472Z,23.80
2018-12-29T11:51:51.509Z,24.20
2018-12-29T11:52:51.509Z,24.40
2018-12-29T11:53:51.469Z,26.40
2018-12-29T11:54:51.444Z,25.00
2018-12-29T11:55:51.447Z,27.00
2018-12-29T11:56:51.429Z,25.30
2018-12-29T11:57:51.416Z,29.60
2018-12-29T11:58:51.415Z,24.10
2018-12-29T11:59:51.381Z,28.80
2018-12-29T12:00:51.382Z,26.20
2018-12-29T12:01:51.368Z,25.50
2018-12-29T12:02:51.353Z,24.90
2018-12-29T12:03:51.361Z,25.40
2018-12-29T12:04:51.333Z,24.70
2018-12-29T12:05:51.315Z,24.40
2018-12-29T12:06:51.319Z,22.60
2018-12-29T12:07:51.300Z,24.70
2018-12-29T12:08:51.327Z,25.30
2018-12-29T12:09:51.284Z,24.70
2018-12-29T12:10:51.269Z,25.00
2018-12-29T12:11:51.255Z,23.80
2018-12-29T12:12:51.319Z,25.70
2018-12-29T12:13:51.258Z,24.60
2018-12-29T12:14:51.231Z,23.80
2018-12-29T12:15:51.215Z,24.20
2018-12-29T12:16:51.201Z,22.10
2018-12-29T12:17:57.442Z,23.90
2018-12-29T12:18:52.203Z,23.10
2018-12-29T12:19:51.174Z,24.60
2018-12-29T12:20:51.163Z,24.40
2018-12-29T12:21:51.166Z,25.30
2018-12-29T12:22:51.138Z,25.40
2018-12-29T12:23:51.153Z,25.60
2018-12-29T12:24:51.117Z,22.90
2018-12-29T12:25:51.115Z,21.80
2018-12-29T12:26:51.097Z,26.40
2018-12-29T12:27:51.087Z,23.70
2018-12-29T12:28:51.125Z,25.40
2018-12-29T12:29:51.067Z,24.80
2018-12-29T12:30:51.104Z,24.90
2018-12-29T12:31:51.043Z,24.80
2018-12-29T12:32:51.073Z,24.00
2018-12-29T12:33:51.034Z,23.70
2018-12-29T12:34:51.073Z,24.10
2018-12-29T12:35:51.037Z,24.70
2018-12-29T12:36:50.988Z,24.10
2018-12-29T12:37:50.976Z,23.00
2018-12-29T12:38:51.021Z,24.30
2018-12-29T12:39:51.048Z,23.90
2018-12-29T12:40:50.954Z,21.10
2018-12-29T12:41:50.970Z,24.10
2018-12-29T12:42:50.936Z,23.30
2018-12-29T12:43:50.941Z,24.60
2018-12-29T12:44:51.049Z,23.50
2018-12-29T12:45:50.892Z,22.50
2018-12-29T12:46:50.901Z,23.50
2018-12-29T12:47:50.936Z,23.40
2018-12-29T12:48:50.863Z,22.90
2018-12-29T12:49:51.096Z,23.40
2018-12-29T12:50:50.870Z,23.60
2018-12-29T12:51:50.846Z,22.50
2018-12-29T12:52:50.823Z,22.30
2018-12-29T12:53:50.862Z,21.90